Time;durP1;ratioP1;P1;durP2;ratioP2;P2;SDS_P1;SDS_P2;PMS_P1;PMS_P2;Temp;Humidity;BMP_temperature;BMP_pressure;BME280_temperature;BME280_humidity;BME280_pressure;Samples;Min_cycle;Max_cycle;Signal;HPM_P1;HPM_P2
2022/05/22 00:01:49;;;;;;;3.38;2.63;;;22.50;49.80;;;;;;4975512;28;20218;-71
2022/05/22 00:04:16;;;;;;;2.30;2.20;;;22.50;49.80;;;;;;4975436;28;20218;-71
2022/05/22 00:06:44;;;;;;;2.50;2.30;;;22.50;49.90;;;;;;4976972;28;20198;-71
2022/05/22 00:09:10;;;;;;;3.17;2.88;;;22.50;49.90;;;;;;4975383;28;20205;-71
2022/05/22 00:11:38;;;;;;;2.47;2.28;;;22.50;49.80;;;;;;4976720;28;20190;-71
2022/05/22 00:14:05;;;;;;;2.80;2.55;;;22.50;49.80;;;;;;4975205;28;20604;-72
2022/05/22 00:16:41;;;;;;;3.55;2.67;;;22.40;49.90;;;;;;4975356;28;20208;-71
2022/05/22 00:19:09;;;;;;;2.80;2.50;;;22.40;49.90;;;;;;4977076;28;20182;-71
2022/05/22 00:21:38;;;;;;;2.60;2.40;;;22.40;50.40;;;;;;4975313;28;20194;-71
2022/05/22 00:24:06;;;;;;;2.55;2.35;;;22.40;50.00;;;;;;4976237;28;20221;-71
2022/05/22 00:26:33;;;;;;;2.60;2.40;;;22.40;50.00;;;;;;4975122;28;20204;-71
2022/05/22 00:29:00;;;;;;;2.50;2.30;;;22.30;49.90;;;;;;4975151;28;20202;-71
2022/05/22 00:31:27;;;;;;;2.83;2.38;;;22.30;49.90;;;;;;4976548;28;20194;-71
2022/05/22 00:33:55;;;;;;;2.60;2.40;;;22.30;49.90;;;;;;4974945;28;20277;-71
2022/05/22 00:36:25;;;;;;;2.40;2.20;;;22.30;49.90;;;;;;4975219;28;20226;-71
2022/05/22 00:38:51;;;;;;;3.15;2.60;;;22.30;50.00;;;;;;4974912;28;20225;-71
2022/05/22 00:41:19;;;;;;;2.88;2.60;;;22.30;50.00;;;;;;4976128;28;20221;-71
2022/05/22 00:43:47;;;;;;;2.50;2.30;;;22.30;50.00;;;;;;4976106;28;20304;-71
2022/05/22 00:46:15;;;;;;;2.63;2.42;;;22.30;50.00;;;;;;4974836;28;20675;-71
2022/05/22 00:48:44;;;;;;;2.80;2.60;;;22.20;49.90;;;;;;4974798;28;20202;-71
2022/05/22 00:51:15;;;;;;;3.00;2.70;;;22.20;49.90;;;;;;4974719;28;20202;-71
2022/05/22 00:53:43;;;;;;;2.60;2.40;;;22.20;49.90;;;;;;4974621;28;20698;-71
2022/05/22 00:56:11;;;;;;;2.97;2.42;;;22.20;49.90;;;;;;4976054;28;20186;-71
2022/05/22 00:58:38;;;;;;;3.03;2.50;;;22.20;50.00;;;;;;4974912;28;20237;-71
2022/05/22 01:01:06;;;;;;;3.17;2.80;;;22.20;50.00;;;;;;4975013;28;20226;-71
2022/05/22 01:03:33;;;;;;;3.05;2.45;;;22.20;50.00;;;;;;4975989;28;20233;-71
2022/05/22 01:06:03;;;;;;;2.75;2.53;;;22.20;50.00;;;;;;4975139;28;20198;-71
2022/05/22 01:08:32;;;;;;;3.38;2.67;;;22.20;49.80;;;;;;4975744;28;20213;-71
2022/05/22 01:11:00;;;;;;;2.50;2.30;;;22.20;49.90;;;;;;4981659;28;20202;-71
2022/05/22 01:13:28;;;;;;;2.55;2.30;;;22.20;49.90;;;;;;4976835;28;20292;-71
2022/05/22 01:15:55;;;;;;;2.50;2.30;;;22.10;49.90;;;;;;4975825;28;20690;-71
2022/05/22 01:18:22;;;;;;;3.30;2.47;;;22.10;49.90;;;;;;4974598;28;20200;-71
2022/05/22 01:20:51;;;;;;;3.60;2.60;;;22.10;50.00;;;;;;4974486;28;20685;-71
2022/05/22 01:23:23;;;;;;;2.60;2.40;;;22.10;49.90;;;;;;4974023;28;20770;-71
2022/05/22 01:25:50;;;;;;;2.85;2.50;;;22.10;50.00;;;;;;4974089;28;20190;-71
2022/05/22 01:28:19;;;;;;;2.88;2.60;;;22.10;50.00;;;;;;4976204;28;20190;-71
2022/05/22 01:30:48;;;;;;;2.42;2.22;;;22.00;50.00;;;;;;4974594;28;20671;-71
2022/05/22 01:33:15;;;;;;;2.75;2.45;;;22.00;49.90;;;;;;4974004;28;20703;-71
2022/05/22 01:35:42;;;;;;;2.75;2.55;;;22.00;49.90;;;;;;4974023;28;20651;-71
2022/05/22 01:38:10;;;;;;;3.05;2.38;;;22.00;49.90;;;;;;4973918;28;20584;-71
2022/05/22 01:40:42;;;;;;;2.78;2.55;;;22.00;50.00;;;;;;4973813;28;20256;-71
2022/05/22 01:43:10;;;;;;;2.60;2.40;;;22.00;49.90;;;;;;4973594;28;20312;-70
2022/05/22 01:45:38;;;;;;;2.53;2.33;;;22.00;50.60;;;;;;4973646;28;20198;-71
2022/05/22 01:48:06;;;;;;;3.08;2.60;;;21.90;50.00;;;;;;4973740;28;20286;-71
2022/05/22 01:50:36;;;;;;;2.63;2.42;;;21.90;50.10;;;;;;4973906;28;20206;-71
2022/05/22 01:53:04;;;;;;;3.50;2.50;;;21.90;50.00;;;;;;4973600;28;20612;-71
2022/05/22 01:55:31;;;;;;;2.80;2.60;;;21.90;50.00;;;;;;4973665;28;20256;-71
2022/05/22 01:58:02;;;;;;;2.20;2.10;;;21.90;50.00;;;;;;4973768;28;20561;-71
2022/05/22 02:00:30;;;;;;;2.70;2.50;;;21.90;50.10;;;;;;4974137;28;20198;-71
2022/05/22 02:02:58;;;;;;;3.10;2.80;;;21.90;50.10;;;;;;4974636;28;20214;-71
2022/05/22 02:05:35;;;;;;;2.50;2.30;;;21.80;50.60;;;;;;4974601;28;20201;-71
2022/05/22 02:10:53;;;;;;;2.70;2.50;;;21.80;50.00;;;;;;4973430;28;20194;-70
2022/05/22 02:13:22;;;;;;;2.63;2.42;;;21.80;50.10;;;;;;4973190;28;20218;-71
2022/05/22 02:15:52;;;;;;;2.70;2.50;;;21.80;50.20;;;;;;5162197;23;20238;-71
2022/05/22 02:18:19;;;;;;;2.88;2.58;;;21.80;50.00;;;;;;4973323;28;20197;-71
2022/05/22 02:20:47;;;;;;;2.70;2.50;;;21.80;50.10;;;;;;4974649;28;20194;-71
2022/05/22 02:23:15;;;;;;;2.70;2.50;;;21.80;50.10;;;;;;4963425;28;20293;-72
2022/05/22 02:25:44;;;;;;;2.72;2.53;;;21.80;50.10;;;;;;4954068;28;20205;-71
2022/05/22 02:28:14;;;;;;;3.15;2.50;;;21.80;50.20;;;;;;4953876;28;20728;-72
2022/05/22 02:30:45;;;;;;;2.60;2.40;;;21.80;50.20;;;;;;4953721;28;20202;-71
2022/05/22 02:33:12;;;;;;;2.42;2.30;;;21.80;50.20;;;;;;4953853;28;20226;-71
2022/05/22 02:35:50;;;;;;;2.60;2.40;;;21.70;50.20;;;;;;4954105;28;20675;-71
2022/05/22 02:38:24;;;;;;;2.40;2.20;;;21.70;50.10;;;;;;4953744;28;20590;-71
2022/05/22 02:40:53;;;;;;;2.60;2.40;;;21.70;50.20;;;;;;4953903;28;20675;-71
2022/05/22 02:43:20;;;;;;;3.28;2.28;;;21.70;50.20;;;;;;4953510;28;20228;-72
2022/05/22 02:45:55;;;;;;;3.33;2.50;;;21.70;50.20;;;;;;4953998;28;20199;-72
2022/05/22 02:48:22;;;;;;;2.92;2.63;;;21.70;50.30;;;;;;4953693;29;20250;-72
2022/05/22 02:51:00;;;;;;;2.65;2.45;;;21.70;50.30;;;;;;4953486;29;20273;-72
2022/05/22 02:53:27;;;;;;;2.60;2.40;;;21.70;50.20;;;;;;4953469;28;20219;-71
2022/05/22 02:56:13;;;;;;;2.70;2.50;;;21.70;50.30;;;;;;4955334;29;20543;-72
2022/05/22 02:58:59;;;;;;;2.53;2.33;;;21.60;50.30;;;;;;4955069;28;20183;-72
2022/05/22 03:01:29;;;;;;;3.22;2.58;;;21.60;50.20;;;;;;4954057;28;20277;-71
2022/05/22 03:03:56;;;;;;;3.60;2.45;;;21.60;50.20;;;;;;4953449;28;20223;-71
2022/05/22 03:06:41;;;;;;;2.75;2.55;;;21.60;50.20;;;;;;4954957;28;20197;-71
2022/05/22 03:09:10;;;;;;;2.83;2.58;;;21.60;50.30;;;;;;4953753;28;20187;-72
2022/05/22 03:11:38;;;;;;;2.53;2.33;;;21.60;50.20;;;;;;4953578;29;20198;-72
2022/05/22 03:14:05;;;;;;;2.50;2.30;;;21.60;50.20;;;;;;4953334;28;20298;-72
2022/05/22 03:16:34;;;;;;;2.72;2.40;;;21.60;50.30;;;;;;4953404;28;20221;-72
2022/05/22 03:19:13;;;;;;;2.45;2.25;;;21.60;50.20;;;;;;4953582;28;20289;-72
2022/05/22 03:21:40;;;;;;;2.75;2.50;;;21.60;50.20;;;;;;4954949;28;20191;-72
2022/05/22 03:24:08;;;;;;;2.20;2.10;;;21.60;50.20;;;;;;4953506;28;20222;-71
2022/05/22 03:26:35;;;;;;;2.47;2.38;;;21.60;50.30;;;;;;4953400;28;20250;-72
2022/05/22 03:29:02;;;;;;;3.22;2.50;;;21.60;50.20;;;;;;4953464;28;20191;-71
2022/05/22 03:31:29;;;;;;;2.58;2.35;;;21.60;50.30;;;;;;4953391;28;20199;-71
2022/05/22 03:33:57;;;;;;;2.33;2.15;;;21.60;50.20;;;;;;4956706;28;20222;-71
2022/05/22 03:36:24;;;;;;;2.42;2.22;;;21.60;50.20;;;;;;4956603;28;20198;-72
2022/05/22 03:38:53;;;;;;;2.58;2.38;;;21.70;50.00;;;;;;4956904;28;20195;-72
2022/05/22 03:41:21;;;;;;;2.30;2.20;;;21.70;49.90;;;;;;4956768;28;20201;-71
2022/05/22 03:43:48;;;;;;;2.55;2.30;;;21.70;50.40;;;;;;4956682;28;20223;-72
2022/05/22 03:46:40;;;;;;;2.42;2.20;;;21.70;49.70;;;;;;4957221;28;20620;-71
2022/05/22 03:49:08;;;;;;;2.28;2.17;;;21.70;49.70;;;;;;4956571;29;20305;-71
2022/05/22 03:51:40;;;;;;;2.53;2.30;;;21.70;49.70;;;;;;4956623;28;20210;-72
2022/05/22 03:54:11;;;;;;;3.45;2.22;;;21.80;49.70;;;;;;4956613;28;20214;-71
2022/05/22 03:56:44;;;;;;;2.55;2.35;;;21.80;49.70;;;;;;4956729;28;20286;-71
2022/05/22 03:59:21;;;;;;;2.30;2.10;;;21.80;49.70;;;;;;4957051;28;20574;-71
2022/05/22 04:01:48;;;;;;;3.25;2.15;;;21.80;49.50;;;;;;4956676;29;20198;-71
2022/05/22 04:04:16;;;;;;;2.40;2.20;;;21.80;49.60;;;;;;4956250;28;20277;-71
2022/05/22 04:06:43;;;;;;;2.13;1.98;;;21.80;49.40;;;;;;4956293;29;20230;-71
2022/05/22 04:09:12;;;;;;;2.15;2.03;;;21.80;49.40;;;;;;4957168;28;20211;-71
2022/05/22 04:11:56;;;;;;;2.40;2.20;;;21.80;49.40;;;;;;4956197;29;20203;-71
2022/05/22 04:14:25;;;;;;;2.50;2.30;;;21.90;49.40;;;;;;4956003;28;20639;-71
2022/05/22 04:17:05;;;;;;;2.53;2.33;;;21.90;49.30;;;;;;4956105;28;20265;-71
2022/05/22 04:19:34;;;;;;;2.42;2.22;;;21.90;49.50;;;;;;4956155;28;20202;-71
2022/05/22 04:22:02;;;;;;;3.15;2.30;;;21.90;49.50;;;;;;4955950;28;20221;-73
2022/05/22 04:27:16;;;;;;;2.55;2.00;;;21.90;49.40;;;;;;4956008;28;20195;-71
2022/05/22 04:29:43;;;;;;;2.50;2.30;;;21.90;49.30;;;;;;4956231;28;20206;-71
2022/05/22 04:32:11;;;;;;;2.42;2.03;;;21.90;49.30;;;;;;4955931;28;20207;-71
2022/05/22 04:34:45;;;;;;;2.35;2.15;;;21.90;49.30;;;;;;4955948;28;20211;-72
2022/05/22 04:37:13;;;;;;;2.30;2.20;;;21.90;49.50;;;;;;4955979;28;20203;-72
2022/05/22 04:39:43;;;;;;;2.40;2.20;;;21.90;49.50;;;;;;4956188;28;20578;-72
2022/05/22 04:42:11;;;;;;;2.58;2.38;;;21.90;49.60;;;;;;4956083;28;20676;-72
2022/05/22 04:44:38;;;;;;;2.63;2.10;;;22.00;50.40;;;;;;4955599;28;20287;-72
2022/05/22 04:47:28;;;;;;;2.00;1.90;;;22.10;49.80;;;;;;4957546;28;20202;-72
2022/05/22 04:50:29;;;;;;;2.88;2.20;;;22.30;50.00;;;;;;4955852;28;20215;-71
2022/05/22 04:53:11;;;;;;;2.40;2.20;;;22.50;49.30;;;;;;4957054;28;20214;-72
2022/05/22 04:56:08;;;;;;;2.22;2.13;;;22.70;48.90;;;;;;4952820;29;20226;-72
2022/05/22 04:58:57;;;;;;;2.83;2.22;;;23.00;48.50;;;;;;4955470;28;20294;-72
2022/05/22 05:01:26;;;;;;;2.75;2.42;;;23.10;48.30;;;;;;4955486;29;20679;-72
2022/05/22 05:04:29;;;;;;;2.50;2.30;;;23.30;48.10;;;;;;4954611;29;20206;-72
2022/05/22 05:07:07;;;;;;;2.38;2.05;;;23.40;47.90;;;;;;4955334;29;20199;-72
2022/05/22 05:09:55;;;;;;;2.30;2.10;;;23.50;47.60;;;;;;4955285;28;20207;-72
2022/05/22 05:12:41;;;;;;;2.20;2.08;;;23.60;47.60;;;;;;4956490;28;20226;-72
2022/05/22 05:15:11;;;;;;;2.38;2.17;;;23.80;47.50;;;;;;4954946;28;20191;-72
2022/05/22 05:17:41;;;;;;;2.20;2.10;;;23.90;47.30;;;;;;4954708;28;20207;-72
2022/05/22 05:20:09;;;;;;;2.40;2.20;;;24.00;47.10;;;;;;4954917;28;20730;-72
2022/05/22 05:22:50;;;;;;;2.45;2.25;;;24.10;46.80;;;;;;4954792;28;20305;-72
2022/05/22 05:25:23;;;;;;;2.47;2.28;;;24.20;46.60;;;;;;4954754;28;20301;-72
2022/05/22 05:27:50;;;;;;;2.38;2.17;;;24.30;46.60;;;;;;4954859;28;20195;-71
2022/05/22 05:30:20;;;;;;;2.55;2.33;;;24.40;46.30;;;;;;4954837;28;20234;-72
2022/05/22 05:32:48;;;;;;;2.58;2.38;;;24.50;46.10;;;;;;4954782;28;20226;-72
2022/05/22 05:35:34;;;;;;;2.55;2.35;;;24.70;46.50;;;;;;4955902;29;20186;-72
2022/05/22 05:38:05;;;;;;;2.28;2.17;;;24.80;45.70;;;;;;4954804;28;20204;-72
2022/05/22 05:40:33;;;;;;;2.40;2.20;;;24.90;45.50;;;;;;4954650;28;20211;-72
2022/05/22 05:43:00;;;;;;;2.20;2.10;;;25.00;45.20;;;;;;4954639;28;20222;-72
2022/05/22 05:45:27;;;;;;;2.10;2.00;;;25.20;45.20;;;;;;4955156;28;20222;-72
2022/05/22 05:47:58;;;;;;;2.78;2.30;;;25.30;44.90;;;;;;4954557;28;20191;-72
2022/05/22 05:50:58;;;;;;;2.40;2.20;;;25.40;44.70;;;;;;4955053;28;20671;-72
2022/05/22 05:53:34;;;;;;;2.00;1.90;;;25.60;44.50;;;;;;4954439;28;20718;-72
2022/05/22 05:56:21;;;;;;;1.95;1.85;;;25.70;44.10;;;;;;4955177;28;20202;-71
2022/05/22 05:59:06;;;;;;;2.30;2.10;;;25.90;44.00;;;;;;4954330;28;20668;-72
2022/05/22 06:01:45;;;;;;;2.17;1.98;;;26.00;44.30;;;;;;4954309;28;20282;-71
2022/05/22 06:04:13;;;;;;;2.10;2.00;;;26.10;43.60;;;;;;4954337;28;20650;-71
2022/05/22 06:06:40;;;;;;;2.25;2.05;;;26.20;43.40;;;;;;4954344;28;20191;-72
2022/05/22 06:09:09;;;;;;;2.42;1.98;;;26.30;43.20;;;;;;4954334;29;20202;-72
2022/05/22 06:12:08;;;;;;;2.00;1.85;;;26.40;43.00;;;;;;4954113;28;20179;-72
2022/05/22 06:14:38;;;;;;;2.30;2.10;;;26.50;42.80;;;;;;4953984;29;20206;-72
2022/05/22 06:17:05;;;;;;;1.77;1.67;;;26.60;42.80;;;;;;4953888;28;20622;-72
2022/05/22 06:19:58;;;;;;;2.15;2.00;;;26.60;42.50;;;;;;4954109;29;20194;-72
2022/05/22 06:22:29;;;;;;;2.40;2.20;;;26.70;42.30;;;;;;4954227;28;20242;-72
2022/05/22 06:25:00;;;;;;;2.00;1.90;;;26.80;42.10;;;;;;4954784;28;20215;-72
2022/05/22 06:27:46;;;;;;;2.17;1.75;;;26.90;41.80;;;;;;4955743;29;20193;-72
2022/05/22 06:30:36;;;;;;;2.15;2.00;;;27.00;41.90;;;;;;4954409;28;20210;-72
2022/05/22 06:33:36;;;;;;;2.20;2.00;;;27.00;41.70;;;;;;4954190;28;20223;-72
2022/05/22 06:36:26;;;;;;;1.95;1.80;;;27.10;41.50;;;;;;4954536;28;20305;-72
2022/05/22 06:42:05;;;;;;;1.90;1.80;;;27.30;41.10;;;;;;4953651;28;20203;-72
2022/05/22 06:44:57;;;;;;;1.80;1.70;;;27.40;41.00;;;;;;4955071;28;20254;-72
2022/05/22 06:47:34;;;;;;;1.70;1.60;;;27.50;40.80;;;;;;4955289;28;20599;-72
2022/05/22 06:50:10;;;;;;;2.25;1.70;;;27.50;40.70;;;;;;4953778;28;20191;-72
2022/05/22 06:53:09;;;;;;;1.80;1.70;;;27.60;40.60;;;;;;4943172;29;20218;-72
2022/05/22 06:55:55;;;;;;;1.80;1.70;;;27.70;40.40;;;;;;4954955;28;20277;-72
2022/05/22 06:58:38;;;;;;;1.85;1.75;;;27.70;40.30;;;;;;4955391;28;20187;-72
2022/05/22 07:01:24;;;;;;;1.83;1.73;;;27.80;40.20;;;;;;4955031;29;20189;-72
2022/05/22 07:04:00;;;;;;;2.35;1.77;;;27.80;40.10;;;;;;4954887;28;20223;-72
2022/05/22 07:06:33;;;;;;;2.15;1.70;;;27.90;40.00;;;;;;4955502;28;20190;-72
2022/05/22 07:09:20;;;;;;;1.60;1.50;;;27.90;40.00;;;;;;4958694;28;20194;-72
2022/05/22 07:12:07;;;;;;;1.80;1.70;;;27.90;39.90;;;;;;4958710;28;20201;-72
2022/05/22 07:14:42;;;;;;;2.30;1.95;;;28.00;39.80;;;;;;4958832;29;20174;-72
2022/05/22 07:17:35;;;;;;;1.73;1.52;;;28.10;39.80;;;;;;4957915;28;20213;-72
2022/05/22 07:20:22;;;;;;;1.70;1.60;;;28.10;39.60;;;;;;4957518;28;20673;-72
2022/05/22 07:23:07;;;;;;;2.55;1.63;;;28.20;39.50;;;;;;4958578;28;20217;-72
2022/05/22 07:25:44;;;;;;;1.73;1.63;;;28.20;39.40;;;;;;4958900;28;20211;-72
2022/05/22 07:28:11;;;;;;;1.88;1.77;;;28.20;39.40;;;;;;4959365;28;20233;-72
2022/05/22 07:31:00;;;;;;;1.73;1.63;;;28.20;40.10;;;;;;4959519;28;20276;-72
2022/05/22 07:33:46;;;;;;;1.83;1.73;;;28.20;39.50;;;;;;4961171;28;20221;-72
2022/05/22 07:36:39;;;;;;;1.92;1.80;;;28.30;39.50;;;;;;4958561;28;20205;-72
2022/05/22 07:39:39;;;;;;;1.85;1.75;;;28.30;39.40;;;;;;4957221;28;20675;-72
2022/05/22 07:42:29;;;;;;;1.80;1.70;;;28.40;39.30;;;;;;4958101;28;20219;-72
2022/05/22 07:45:15;;;;;;;1.70;1.60;;;28.40;39.30;;;;;;4958341;29;20754;-72
2022/05/22 07:47:49;;;;;;;1.60;1.50;;;28.40;39.20;;;;;;4956580;29;20202;-72
2022/05/22 07:50:24;;;;;;;1.80;1.70;;;28.40;39.10;;;;;;4956850;28;20237;-72
2022/05/22 07:53:00;;;;;;;1.92;1.77;;;28.40;39.00;;;;;;4958186;28;20225;-72
2022/05/22 07:55:39;;;;;;;1.75;1.65;;;28.50;39.10;;;;;;4957773;28;20198;-72
2022/05/22 07:58:30;;;;;;;1.88;1.77;;;28.40;39.00;;;;;;4957337;28;20203;-71
2022/05/22 08:01:03;;;;;;;1.80;1.70;;;28.50;39.10;;;;;;4956909;28;20190;-72
2022/05/22 08:03:52;;;;;;;1.60;1.50;;;28.40;39.10;;;;;;4956574;28;20221;-72
2022/05/22 08:06:39;;;;;;;1.83;1.73;;;28.40;39.00;;;;;;4957570;28;20591;-71
2022/05/22 08:09:37;;;;;;;1.85;1.75;;;28.40;39.10;;;;;;4956810;28;20198;-72
2022/05/22 08:12:06;;;;;;;1.77;1.67;;;28.40;39.00;;;;;;4956500;28;20225;-72
2022/05/22 08:14:33;;;;;;;1.80;1.70;;;28.50;39.00;;;;;;4956799;28;20194;-72
2022/05/22 08:17:01;;;;;;;1.60;1.50;;;28.50;39.00;;;;;;4956262;28;20567;-72
2022/05/22 08:19:29;;;;;;;1.98;1.77;;;28.50;39.00;;;;;;4956838;28;20194;-72
2022/05/22 08:22:18;;;;;;;1.60;1.50;;;28.40;39.10;;;;;;4956787;28;20207;-72
2022/05/22 08:25:15;;;;;;;1.80;1.70;;;28.40;39.10;;;;;;4957376;28;20211;-72
2022/05/22 08:27:43;;;;;;;1.90;1.80;;;28.40;39.10;;;;;;4957364;28;20222;-71
2022/05/22 08:30:12;;;;;;;1.70;1.60;;;28.40;39.20;;;;;;4956646;28;20261;-72
2022/05/22 08:32:40;;;;;;;1.70;1.60;;;28.40;39.20;;;;;;4955947;28;20698;-72
2022/05/22 08:35:10;;;;;;;1.60;1.50;;;28.30;39.30;;;;;;4957331;28;20529;-72
2022/05/22 08:37:37;;;;;;;1.77;1.67;;;28.30;39.50;;;;;;4955883;28;20292;-72
2022/05/22 08:40:06;;;;;;;1.58;1.48;;;28.20;39.50;;;;;;4955900;29;20206;-72
2022/05/22 08:42:36;;;;;;;1.80;1.70;;;28.20;39.50;;;;;;4957327;28;20210;-72
2022/05/22 08:45:05;;;;;;;1.52;1.42;;;28.10;39.70;;;;;;4955821;29;20218;-72
2022/05/22 08:47:38;;;;;;;1.67;1.58;;;28.10;39.70;;;;;;4957484;28;20651;-72
2022/05/22 08:50:06;;;;;;;1.60;1.50;;;28.10;39.70;;;;;;4957216;28;20577;-72
2022/05/22 08:52:37;;;;;;;1.67;1.58;;;28.10;39.80;;;;;;4955940;28;20265;-72
2022/05/22 08:55:06;;;;;;;1.63;1.52;;;28.00;39.90;;;;;;4955990;28;20202;-72
2022/05/22 09:00:21;;;;;;;1.60;1.50;;;28.10;39.80;;;;;;4955390;28;20202;-72
2022/05/22 09:02:52;;;;;;;1.70;1.60;;;28.20;39.60;;;;;;4955577;28;20222;-72
2022/05/22 09:05:20;;;;;;;1.50;1.40;;;28.40;39.40;;;;;;4955166;29;20222;-72
2022/05/22 09:07:54;;;;;;;1.60;1.50;;;28.50;39.20;;;;;;4956473;28;20194;-72
2022/05/22 09:10:22;;;;;;;1.70;1.60;;;28.60;39.20;;;;;;4955566;29;20200;-72
2022/05/22 09:13:00;;;;;;;1.90;1.42;;;28.70;39.20;;;;;;4955685;28;20222;-72
2022/05/22 09:15:36;;;;;;;1.70;1.60;;;28.70;39.00;;;;;;4955057;28;20194;-72
2022/05/22 09:18:09;;;;;;;1.88;1.70;;;28.80;39.10;;;;;;4956585;28;20274;-72
2022/05/22 09:20:43;;;;;;;2.05;1.55;;;28.70;38.90;;;;;;4955337;28;20202;-72
2022/05/22 09:23:22;;;;;;;1.70;1.40;;;28.80;38.90;;;;;;4955127;28;20308;-72
2022/05/22 09:25:57;;;;;;;1.48;1.48;;;28.80;39.00;;;;;;4955018;28;20650;-72
2022/05/22 09:28:35;;;;;;;1.40;1.30;;;28.70;39.00;;;;;;4956453;28;20194;-72
2022/05/22 09:31:06;;;;;;;1.40;1.40;;;28.70;39.20;;;;;;4954509;28;20620;-72
2022/05/22 09:33:38;;;;;;;1.40;1.38;;;28.70;39.10;;;;;;4954791;28;20222;-72
2022/05/22 09:36:12;;;;;;;2.17;1.60;;;28.60;39.10;;;;;;4954748;29;20253;-72
2022/05/22 09:38:57;;;;;;;1.38;1.27;;;28.60;39.00;;;;;;4954694;28;20194;-72
2022/05/22 09:41:31;;;;;;;1.45;1.38;;;28.60;39.10;;;;;;4956076;28;20249;-72
2022/05/22 09:44:09;;;;;;;1.42;1.40;;;28.60;39.10;;;;;;4954473;28;20722;-72
2022/05/22 09:46:48;;;;;;;1.48;1.40;;;28.60;39.10;;;;;;4954668;28;20737;-73
2022/05/22 09:49:31;;;;;;;1.70;1.60;;;28.60;39.20;;;;;;4956167;28;20175;-72
2022/05/22 09:52:03;;;;;;;1.40;1.40;;;28.60;39.30;;;;;;4954703;29;20193;-72
2022/05/22 09:54:39;;;;;;;1.85;1.75;;;28.60;39.30;;;;;;4954586;28;20194;-73
2022/05/22 09:57:10;;;;;;;1.48;1.38;;;28.50;39.20;;;;;;4955863;28;20265;-72
2022/05/22 09:59:46;;;;;;;1.52;1.42;;;28.50;39.30;;;;;;4955791;28;20206;-72
2022/05/22 10:02:15;;;;;;;1.65;1.52;;;28.50;39.40;;;;;;4954602;28;20194;-72
2022/05/22 10:04:49;;;;;;;1.50;1.40;;;28.50;39.40;;;;;;4955483;28;20194;-72
2022/05/22 10:07:18;;;;;;;1.67;1.58;;;28.50;39.50;;;;;;4954340;29;20194;-72
2022/05/22 10:09:49;;;;;;;1.63;1.52;;;28.50;39.50;;;;;;4954236;28;20202;-72
2022/05/22 10:12:23;;;;;;;1.50;1.40;;;28.40;39.60;;;;;;4954022;28;20237;-72
2022/05/22 10:15:01;;;;;;;1.65;1.55;;;28.40;39.60;;;;;;4955484;28;20261;-72
2022/05/22 10:17:35;;;;;;;1.23;1.20;;;28.40;39.70;;;;;;4953797;28;20209;-72
2022/05/22 10:20:08;;;;;;;1.55;1.48;;;28.30;39.80;;;;;;4953971;28;20205;-72
2022/05/22 10:22:44;;;;;;;1.60;1.50;;;28.30;40.00;;;;;;4953865;28;20228;-72
2022/05/22 10:25:32;;;;;;;2.38;1.60;;;28.20;40.00;;;;;;4955362;28;20662;-72
2022/05/22 10:28:00;;;;;;;1.55;1.45;;;28.20;40.10;;;;;;4955610;29;20186;-72
2022/05/22 10:30:29;;;;;;;1.50;1.40;;;28.20;40.20;;;;;;4953918;28;20232;-72
2022/05/22 10:32:59;;;;;;;1.60;1.50;;;28.20;40.30;;;;;;4953620;28;20285;-72
2022/05/22 10:35:28;;;;;;;1.50;1.40;;;28.10;40.30;;;;;;4954242;28;20218;-72
2022/05/22 10:37:59;;;;;;;1.50;1.40;;;28.10;40.40;;;;;;4953863;28;20301;-71
2022/05/22 10:42:44;;;;;;;1.60;1.50;;;28.10;40.50;;;;;;4953840;29;20198;-72
2022/05/22 10:43:13;;;;;;;1.45;1.35;;;28.00;40.50;;;;;;4957397;28;20216;-72
2022/05/22 10:45:40;;;;;;;1.23;1.20;;;28.00;41.20;;;;;;4957629;29;20214;-72
2022/05/22 10:48:09;;;;;;;1.40;1.30;;;27.90;40.70;;;;;;4958795;28;20682;-72
2022/05/22 10:50:36;;;;;;;1.50;1.40;;;27.90;41.40;;;;;;4957905;28;20201;-72
2022/05/22 10:53:03;;;;;;;1.58;1.48;;;27.90;41.00;;;;;;4957637;28;20264;-72
2022/05/22 10:55:39;;;;;;;1.50;1.40;;;27.80;41.00;;;;;;4957626;28;20186;-72
2022/05/22 10:58:23;;;;;;;1.52;1.42;;;27.80;41.10;;;;;;4957542;28;20670;-72
2022/05/22 11:00:55;;;;;;;1.50;1.40;;;27.80;41.20;;;;;;4958839;28;20178;-72
2022/05/22 11:03:26;;;;;;;1.10;1.10;;;27.70;41.30;;;;;;4957275;28;20248;-72
2022/05/22 11:05:53;;;;;;;2.00;1.50;;;27.70;41.40;;;;;;4957353;29;20672;-72
2022/05/22 11:08:28;;;;;;;1.50;1.40;;;27.60;41.40;;;;;;4958836;28;20551;-72
2022/05/22 11:10:57;;;;;;;1.50;1.40;;;27.60;41.50;;;;;;4957684;28;20288;-72
2022/05/22 11:13:25;;;;;;;1.50;1.40;;;27.60;41.60;;;;;;4957313;28;20272;-72
2022/05/22 11:15:52;;;;;;;1.42;1.33;;;27.60;41.70;;;;;;4957116;28;20210;-72
2022/05/22 11:18:22;;;;;;;2.03;1.80;;;27.50;41.70;;;;;;4958829;28;20183;-71
2022/05/22 11:20:51;;;;;;;1.60;1.30;;;27.50;41.80;;;;;;4957154;28;20198;-72
2022/05/22 11:23:29;;;;;;;1.52;1.42;;;27.50;41.90;;;;;;4958316;28;20214;-72
2022/05/22 11:26:02;;;;;;;1.60;1.50;;;27.50;41.90;;;;;;4957825;28;20323;-72
2022/05/22 11:28:49;;;;;;;1.30;1.20;;;27.50;42.10;;;;;;4958591;29;20603;-72
2022/05/22 11:31:27;;;;;;;1.40;1.30;;;27.40;42.10;;;;;;4957066;28;20265;-72
2022/05/22 11:34:03;;;;;;;1.60;1.50;;;27.40;42.10;;;;;;4958240;28;20221;-72
2022/05/22 11:36:38;;;;;;;1.60;1.50;;;27.40;42.10;;;;;;4958262;29;20185;-72
2022/05/22 11:39:20;;;;;;;1.50;1.40;;;27.40;42.10;;;;;;4957020;29;20710;-72
2022/05/22 11:41:50;;;;;;;1.67;1.30;;;27.40;42.10;;;;;;4958356;28;20194;-72
2022/05/22 11:44:41;;;;;;;1.50;1.40;;;27.40;42.10;;;;;;4956762;28;20309;-72
2022/05/22 11:47:17;;;;;;;1.67;1.58;;;27.40;42.10;;;;;;4956906;28;20280;-72
2022/05/22 11:49:49;;;;;;;1.60;1.50;;;27.40;42.20;;;;;;4957428;28;20205;-72
2022/05/22 11:55:17;;;;;;;1.50;1.40;;;27.40;42.30;;;;;;4957029;28;20309;-72
2022/05/22 11:57:52;;;;;;;1.60;1.50;;;27.40;42.40;;;;;;4958207;28;20186;-72
2022/05/22 12:00:20;;;;;;;1.52;1.20;;;27.30;42.50;;;;;;4958620;28;20264;-72
2022/05/22 12:03:01;;;;;;;1.58;1.50;;;27.30;42.70;;;;;;4958211;28;20277;-72
2022/05/22 12:05:38;;;;;;;1.40;1.30;;;27.30;42.70;;;;;;4958475;28;20629;-72
2022/05/22 12:08:36;;;;;;;1.60;1.50;;;27.20;42.70;;;;;;4958488;28;20194;-72
2022/05/22 12:11:08;;;;;;;1.55;1.45;;;27.20;42.80;;;;;;4944258;29;20210;-72
2022/05/22 12:13:40;;;;;;;1.50;1.40;;;27.20;42.90;;;;;;4956834;28;20228;-72
2022/05/22 12:16:09;;;;;;;1.85;1.50;;;27.20;42.90;;;;;;4956748;28;20253;-72
2022/05/22 12:18:43;;;;;;;1.50;1.40;;;27.20;43.00;;;;;;4957809;28;20226;-72
2022/05/22 12:21:14;;;;;;;1.50;1.40;;;27.20;43.10;;;;;;4956489;28;20630;-72
2022/05/22 12:23:48;;;;;;;1.58;1.48;;;27.10;43.10;;;;;;4957425;28;20609;-72
2022/05/22 12:26:15;;;;;;;1.30;1.30;;;27.10;43.10;;;;;;4956189;28;20218;-72
2022/05/22 12:28:46;;;;;;;1.50;1.40;;;27.10;43.10;;;;;;4956219;28;20194;-72
2022/05/22 12:31:19;;;;;;;1.70;1.60;;;27.10;43.20;;;;;;4956231;29;20746;-72
2022/05/22 12:33:46;;;;;;;1.33;1.30;;;27.10;43.30;;;;;;4957276;28;20218;-72
2022/05/22 12:36:22;;;;;;;1.33;1.33;;;27.10;43.20;;;;;;4957163;28;20194;-72
2022/05/22 12:38:51;;;;;;;1.35;1.25;;;27.10;43.30;;;;;;4957157;28;20602;-72
2022/05/22 12:41:30;;;;;;;1.40;1.30;;;27.10;43.30;;;;;;4957114;28;20205;-72
2022/05/22 12:43:58;;;;;;;1.50;1.40;;;27.10;43.40;;;;;;4955831;28;20226;-75
2022/05/22 12:46:27;;;;;;;1.50;1.40;;;27.10;43.30;;;;;;4957178;28;20301;-72
2022/05/22 12:49:07;;;;;;;1.40;1.40;;;27.10;43.40;;;;;;4957137;28;20694;-72
2022/05/22 12:51:35;;;;;;;1.70;1.60;;;27.00;43.40;;;;;;4955871;28;20635;-72
2022/05/22 12:54:08;;;;;;;1.65;1.55;;;27.10;43.40;;;;;;4957332;28;20210;-72
2022/05/22 12:56:39;;;;;;;1.40;1.30;;;27.10;43.40;;;;;;4957098;28;20181;-72
2022/05/22 12:59:22;;;;;;;1.60;1.50;;;27.10;43.50;;;;;;4955545;28;20201;-72
2022/05/22 13:01:50;;;;;;;1.50;1.40;;;27.10;43.50;;;;;;4956375;28;20593;-72
2022/05/22 13:04:24;;;;;;;1.48;1.38;;;27.10;43.50;;;;;;4956665;28;20214;-72
2022/05/22 13:06:53;;;;;;;1.30;1.30;;;27.10;43.50;;;;;;4955419;29;20222;-72
2022/05/22 13:09:25;;;;;;;1.30;1.20;;;27.10;43.50;;;;;;4956553;28;20194;-72
2022/05/22 13:11:54;;;;;;;1.42;1.33;;;27.10;43.60;;;;;;4955657;28;20682;-72
2022/05/22 13:14:24;;;;;;;1.40;1.40;;;27.10;43.60;;;;;;4955210;28;20702;-71
2022/05/22 13:16:51;;;;;;;1.38;1.27;;;27.10;43.70;;;;;;4956379;28;20194;-72
2022/05/22 13:19:20;;;;;;;1.23;1.20;;;27.10;43.70;;;;;;4955212;28;20194;-72
2022/05/22 13:21:47;;;;;;;1.52;1.42;;;27.10;43.60;;;;;;4955122;28;20290;-72
2022/05/22 13:24:26;;;;;;;1.50;1.40;;;27.10;43.70;;;;;;4955065;28;20219;-72
2022/05/22 13:27:02;;;;;;;1.50;1.40;;;27.10;43.70;;;;;;4954908;28;20207;-72
2022/05/22 13:29:37;;;;;;;1.60;1.50;;;27.10;43.70;;;;;;4956127;28;20274;-72
2022/05/22 13:32:05;;;;;;;1.40;1.40;;;27.10;44.30;;;;;;4954811;28;20249;-72
2022/05/22 13:34:33;;;;;;;1.65;1.55;;;27.10;43.70;;;;;;4954808;28;20233;-72
2022/05/22 13:37:01;;;;;;;1.75;1.63;;;27.10;43.80;;;;;;4954780;28;20210;-72